sensor_id;sensor_type;location;lat;lon;timestamp;P1;durP1;ratioP1;P2;durP2;ratioP2
31224;SDS011;17847;31.524;74.366;2024-02-21T00:01:34;101.50;;;53.95;;
31224;SDS011;17847;31.524;74.366;2024-02-21T00:04:04;85.10;;;54.50;;
31224;SDS011;17847;31.524;74.366;2024-02-21T00:06:34;93.05;;;55.40;;
31224;SDS011;17847;31.524;74.366;2024-02-21T00:09:03;89.10;;;51.83;;
31224;SDS011;17847;31.524;74.366;2024-02-21T00:11:33;93.53;;;52.90;;
31224;SDS011;17847;31.524;74.366;2024-02-21T00:14:02;85.32;;;51.63;;
31224;SDS011;17847;31.524;74.366;2024-02-21T00:16:31;79.95;;;51.20;;
31224;SDS011;17847;31.524;74.366;2024-02-21T00:19:01;84.30;;;52.05;;
31224;SDS011;17847;31.524;74.366;2024-02-21T00:21:30;87.60;;;53.60;;
31224;SDS011;17847;31.524;74.366;2024-02-21T00:24:00;81.10;;;50.78;;
31224;SDS011;17847;31.524;74.366;2024-02-21T00:26:29;84.82;;;50.55;;
31224;SDS011;17847;31.524;74.366;2024-02-21T00:28:59;85.13;;;50.55;;
31224;SDS011;17847;31.524;74.366;2024-02-21T00:31:31;86.70;;;52.63;;
31224;SDS011;17847;31.524;74.366;2024-02-21T00:34:00;82.20;;;51.35;;
31224;SDS011;17847;31.524;74.366;2024-02-21T00:36:30;84.57;;;51.30;;
31224;SDS011;17847;31.524;74.366;2024-02-21T00:38:59;87.00;;;52.75;;
31224;SDS011;17847;31.524;74.366;2024-02-21T00:41:29;82.10;;;49.63;;
31224;SDS011;17847;31.524;74.366;2024-02-21T00:43:59;85.03;;;51.13;;
31224;SDS011;17847;31.524;74.366;2024-02-21T00:46:28;82.70;;;51.15;;
31224;SDS011;17847;31.524;74.366;2024-02-21T00:48:57;80.55;;;50.63;;
31224;SDS011;17847;31.524;74.366;2024-02-21T00:51:27;82.82;;;50.60;;
31224;SDS011;17847;31.524;74.366;2024-02-21T00:53:56;79.10;;;50.28;;
31224;SDS011;17847;31.524;74.366;2024-02-21T00:56:26;79.28;;;49.63;;
31224;SDS011;17847;31.524;74.366;2024-02-21T00:58:55;82.30;;;48.60;;
31224;SDS011;17847;31.524;74.366;2024-02-21T01:01:25;79.75;;;48.60;;
31224;SDS011;17847;31.524;74.366;2024-02-21T01:03:55;76.15;;;48.78;;
31224;SDS011;17847;31.524;74.366;2024-02-21T01:06:25;80.38;;;49.58;;
31224;SDS011;17847;31.524;74.366;2024-02-21T01:08:54;90.93;;;51.33;;
31224;SDS011;17847;31.524;74.366;2024-02-21T01:11:24;79.18;;;50.08;;
31224;SDS011;17847;31.524;74.366;2024-02-21T01:13:54;78.60;;;48.92;;
31224;SDS011;17847;31.524;74.366;2024-02-21T01:16:25;78.53;;;50.15;;
31224;SDS011;17847;31.524;74.366;2024-02-21T01:18:55;80.70;;;48.53;;
31224;SDS011;17847;31.524;74.366;2024-02-21T01:21:24;76.90;;;48.65;;
31224;SDS011;17847;31.524;74.366;2024-02-21T01:23:54;81.93;;;48.90;;
31224;SDS011;17847;31.524;74.366;2024-02-21T01:26:23;80.43;;;49.03;;
31224;SDS011;17847;31.524;74.366;2024-02-21T01:28:53;80.70;;;49.65;;
31224;SDS011;17847;31.524;74.366;2024-02-21T01:31:22;79.70;;;50.30;;
31224;SDS011;17847;31.524;74.366;2024-02-21T01:33:52;78.80;;;49.08;;
31224;SDS011;17847;31.524;74.366;2024-02-21T01:36:21;77.57;;;49.72;;
31224;SDS011;17847;31.524;74.366;2024-02-21T01:38:51;79.85;;;51.00;;
31224;SDS011;17847;31.524;74.366;2024-02-21T01:41:21;80.78;;;50.38;;
31224;SDS011;17847;31.524;74.366;2024-02-21T01:43:51;82.43;;;50.92;;
31224;SDS011;17847;31.524;74.366;2024-02-21T01:46:21;81.15;;;50.47;;
31224;SDS011;17847;31.524;74.366;2024-02-21T01:48:51;82.90;;;48.92;;
31224;SDS011;17847;31.524;74.366;2024-02-21T01:51:21;86.68;;;51.25;;
31224;SDS011;17847;31.524;74.366;2024-02-21T01:53:51;78.85;;;50.55;;
31224;SDS011;17847;31.524;74.366;2024-02-21T01:56:22;78.03;;;49.63;;
31224;SDS011;17847;31.524;74.366;2024-02-21T01:58:52;77.43;;;50.88;;
31224;SDS011;17847;31.524;74.366;2024-02-21T02:01:22;79.75;;;49.05;;
31224;SDS011;17847;31.524;74.366;2024-02-21T02:03:52;78.75;;;48.90;;
31224;SDS011;17847;31.524;74.366;2024-02-21T02:06:24;81.55;;;49.78;;
31224;SDS011;17847;31.524;74.366;2024-02-21T02:08:54;84.63;;;52.92;;
31224;SDS011;17847;31.524;74.366;2024-02-21T02:11:24;86.85;;;50.80;;
31224;SDS011;17847;31.524;74.366;2024-02-21T02:13:54;82.80;;;52.53;;
31224;SDS011;17847;31.524;74.366;2024-02-21T02:16:24;86.78;;;56.17;;
31224;SDS011;17847;31.524;74.366;2024-02-21T02:18:53;103.50;;;60.10;;
31224;SDS011;17847;31.524;74.366;2024-02-21T02:21:30;96.65;;;61.45;;
31224;SDS011;17847;31.524;74.366;2024-02-21T02:24:07;107.78;;;65.88;;
31224;SDS011;17847;31.524;74.366;2024-02-21T02:26:38;107.07;;;66.45;;
31224;SDS011;17847;31.524;74.366;2024-02-21T02:29:07;110.40;;;69.53;;
31224;SDS011;17847;31.524;74.366;2024-02-21T02:31:53;129.38;;;76.25;;
31224;SDS011;17847;31.524;74.366;2024-02-21T02:34:38;132.40;;;78.18;;
31224;SDS011;17847;31.524;74.366;2024-02-21T02:37:25;128.55;;;80.07;;
31224;SDS011;17847;31.524;74.366;2024-02-21T02:39:54;129.27;;;79.90;;
31224;SDS011;17847;31.524;74.366;2024-02-21T02:42:23;122.82;;;77.75;;
31224;SDS011;17847;31.524;74.366;2024-02-21T02:44:52;125.05;;;78.28;;
31224;SDS011;17847;31.524;74.366;2024-02-21T02:47:21;126.22;;;76.35;;
31224;SDS011;17847;31.524;74.366;2024-02-21T02:49:51;131.55;;;79.28;;
31224;SDS011;17847;31.524;74.366;2024-02-21T02:52:20;127.90;;;80.82;;
31224;SDS011;17847;31.524;74.366;2024-02-21T02:54:50;129.57;;;79.55;;
31224;SDS011;17847;31.524;74.366;2024-02-21T02:57:19;123.32;;;74.10;;
31224;SDS011;17847;31.524;74.366;2024-02-21T02:59:50;119.45;;;71.90;;
31224;SDS011;17847;31.524;74.366;2024-02-21T03:02:19;106.78;;;68.82;;
31224;SDS011;17847;31.524;74.366;2024-02-21T03:04:48;102.25;;;63.75;;
31224;SDS011;17847;31.524;74.366;2024-02-21T03:07:18;97.45;;;58.78;;
31224;SDS011;17847;31.524;74.366;2024-02-21T03:09:48;97.40;;;58.20;;
31224;SDS011;17847;31.524;74.366;2024-02-21T03:12:17;90.55;;;55.45;;
31224;SDS011;17847;31.524;74.366;2024-02-21T03:14:53;80.32;;;52.80;;
31224;SDS011;17847;31.524;74.366;2024-02-21T03:17:22;76.13;;;46.75;;
31224;SDS011;17847;31.524;74.366;2024-02-21T03:19:51;66.90;;;43.28;;
31224;SDS011;17847;31.524;74.366;2024-02-21T03:22:22;68.90;;;44.55;;
31224;SDS011;17847;31.524;74.366;2024-02-21T03:24:53;67.72;;;40.35;;
31224;SDS011;17847;31.524;74.366;2024-02-21T03:27:22;70.38;;;42.42;;
31224;SDS011;17847;31.524;74.366;2024-02-21T03:29:52;61.38;;;38.85;;
31224;SDS011;17847;31.524;74.366;2024-02-21T03:32:21;61.55;;;37.65;;
31224;SDS011;17847;31.524;74.366;2024-02-21T03:34:50;55.25;;;34.78;;
31224;SDS011;17847;31.524;74.366;2024-02-21T03:37:20;48.83;;;32.33;;
31224;SDS011;17847;31.524;74.366;2024-02-21T03:39:49;45.60;;;30.30;;
31224;SDS011;17847;31.524;74.366;2024-02-21T03:42:19;52.13;;;33.20;;
31224;SDS011;17847;31.524;74.366;2024-02-21T03:44:48;50.85;;;34.42;;
31224;SDS011;17847;31.524;74.366;2024-02-21T03:47:18;51.65;;;34.15;;
31224;SDS011;17847;31.524;74.366;2024-02-21T03:49:47;67.25;;;41.60;;
31224;SDS011;17847;31.524;74.366;2024-02-21T03:52:17;61.55;;;41.55;;
31224;SDS011;17847;31.524;74.366;2024-02-21T03:54:46;60.35;;;40.58;;
31224;SDS011;17847;31.524;74.366;2024-02-21T03:57:16;61.75;;;41.97;;
31224;SDS011;17847;31.524;74.366;2024-02-21T03:59:45;76.95;;;47.78;;
31224;SDS011;17847;31.524;74.366;2024-02-21T04:02:15;72.88;;;51.95;;
31224;SDS011;17847;31.524;74.366;2024-02-21T04:04:45;74.45;;;49.75;;
31224;SDS011;17847;31.524;74.366;2024-02-21T04:07:16;79.07;;;51.17;;
31224;SDS011;17847;31.524;74.366;2024-02-21T04:09:45;68.53;;;44.38;;
31224;SDS011;17847;31.524;74.366;2024-02-21T04:12:15;67.88;;;43.88;;
31224;SDS011;17847;31.524;74.366;2024-02-21T04:14:44;61.58;;;41.13;;
31224;SDS011;17847;31.524;74.366;2024-02-21T04:17:14;55.38;;;36.17;;
31224;SDS011;17847;31.524;74.366;2024-02-21T04:19:43;54.42;;;32.83;;
31224;SDS011;17847;31.524;74.366;2024-02-21T04:22:13;44.10;;;27.60;;
31224;SDS011;17847;31.524;74.366;2024-02-21T04:24:42;43.30;;;29.88;;
31224;SDS011;17847;31.524;74.366;2024-02-21T04:27:11;46.33;;;30.05;;
31224;SDS011;17847;31.524;74.366;2024-02-21T04:29:41;46.55;;;31.13;;
31224;SDS011;17847;31.524;74.366;2024-02-21T04:32:13;49.17;;;31.52;;
31224;SDS011;17847;31.524;74.366;2024-02-21T04:34:43;55.20;;;33.10;;
31224;SDS011;17847;31.524;74.366;2024-02-21T04:37:12;55.92;;;36.72;;
31224;SDS011;17847;31.524;74.366;2024-02-21T04:39:42;54.15;;;38.45;;
31224;SDS011;17847;31.524;74.366;2024-02-21T04:42:11;53.63;;;37.03;;
31224;SDS011;17847;31.524;74.366;2024-02-21T04:44:41;48.30;;;32.78;;
31224;SDS011;17847;31.524;74.366;2024-02-21T04:47:10;49.38;;;36.72;;
31224;SDS011;17847;31.524;74.366;2024-02-21T04:49:40;59.85;;;39.80;;
31224;SDS011;17847;31.524;74.366;2024-02-21T04:52:10;55.60;;;35.10;;
31224;SDS011;17847;31.524;74.366;2024-02-21T04:54:42;43.72;;;31.60;;
31224;SDS011;17847;31.524;74.366;2024-02-21T04:57:11;51.65;;;36.55;;
31224;SDS011;17847;31.524;74.366;2024-02-21T04:59:45;65.30;;;40.08;;
31224;SDS011;17847;31.524;74.366;2024-02-21T05:02:18;59.85;;;39.78;;
31224;SDS011;17847;31.524;74.366;2024-02-21T05:04:50;49.55;;;33.25;;
31224;SDS011;17847;31.524;74.366;2024-02-21T05:07:21;45.95;;;31.92;;
31224;SDS011;17847;31.524;74.366;2024-02-21T05:09:51;46.28;;;32.28;;
31224;SDS011;17847;31.524;74.366;2024-02-21T05:12:21;51.75;;;33.92;;
31224;SDS011;17847;31.524;74.366;2024-02-21T05:14:50;42.83;;;32.50;;
31224;SDS011;17847;31.524;74.366;2024-02-21T05:17:20;41.25;;;26.70;;
31224;SDS011;17847;31.524;74.366;2024-02-21T05:19:49;34.40;;;24.15;;
31224;SDS011;17847;31.524;74.366;2024-02-21T05:22:19;44.90;;;24.83;;
31224;SDS011;17847;31.524;74.366;2024-02-21T05:24:49;35.38;;;24.80;;
31224;SDS011;17847;31.524;74.366;2024-02-21T05:27:18;33.67;;;24.52;;
31224;SDS011;17847;31.524;74.366;2024-02-21T05:29:48;39.88;;;25.88;;
31224;SDS011;17847;31.524;74.366;2024-02-21T05:32:17;32.15;;;22.60;;
31224;SDS011;17847;31.524;74.366;2024-02-21T05:34:49;27.17;;;19.08;;
31224;SDS011;17847;31.524;74.366;2024-02-21T05:37:19;27.75;;;20.60;;
31224;SDS011;17847;31.524;74.366;2024-02-21T05:39:49;28.08;;;20.55;;
31224;SDS011;17847;31.524;74.366;2024-02-21T05:42:18;26.20;;;20.00;;
31224;SDS011;17847;31.524;74.366;2024-02-21T05:44:48;30.40;;;20.02;;
31224;SDS011;17847;31.524;74.366;2024-02-21T05:47:17;23.67;;;16.65;;
31224;SDS011;17847;31.524;74.366;2024-02-21T05:49:48;26.98;;;19.30;;
31224;SDS011;17847;31.524;74.366;2024-02-21T05:54:50;24.88;;;15.27;;
31224;SDS011;17847;31.524;74.366;2024-02-21T05:57:20;24.13;;;16.23;;
31224;SDS011;17847;31.524;74.366;2024-02-21T05:59:49;27.08;;;18.15;;
31224;SDS011;17847;31.524;74.366;2024-02-21T06:02:19;23.65;;;17.75;;
31224;SDS011;17847;31.524;74.366;2024-02-21T06:04:49;23.85;;;14.85;;
31224;SDS011;17847;31.524;74.366;2024-02-21T06:07:19;19.30;;;13.70;;
31224;SDS011;17847;31.524;74.366;2024-02-21T06:09:48;18.90;;;11.95;;
31224;SDS011;17847;31.524;74.366;2024-02-21T06:12:18;14.80;;;12.00;;
31224;SDS011;17847;31.524;74.366;2024-02-21T06:14:47;16.60;;;13.30;;
31224;SDS011;17847;31.524;74.366;2024-02-21T06:17:17;22.02;;;15.40;;
31224;SDS011;17847;31.524;74.366;2024-02-21T06:19:46;33.70;;;12.57;;
31224;SDS011;17847;31.524;74.366;2024-02-21T06:22:16;22.33;;;14.07;;
31224;SDS011;17847;31.524;74.366;2024-02-21T06:24:45;23.00;;;16.10;;
31224;SDS011;17847;31.524;74.366;2024-02-21T06:27:15;19.60;;;13.25;;
31224;SDS011;17847;31.524;74.366;2024-02-21T06:29:45;25.75;;;15.45;;
31224;SDS011;17847;31.524;74.366;2024-02-21T06:32:15;21.90;;;15.40;;
31224;SDS011;17847;31.524;74.366;2024-02-21T06:34:45;25.08;;;16.40;;
31224;SDS011;17847;31.524;74.366;2024-02-21T06:37:14;30.27;;;18.17;;
31224;SDS011;17847;31.524;74.366;2024-02-21T06:39:43;32.05;;;20.83;;
31224;SDS011;17847;31.524;74.366;2024-02-21T06:42:13;29.08;;;19.73;;
31224;SDS011;17847;31.524;74.366;2024-02-21T06:44:43;26.95;;;18.42;;
31224;SDS011;17847;31.524;74.366;2024-02-21T06:47:13;26.95;;;18.02;;
31224;SDS011;17847;31.524;74.366;2024-02-21T06:49:47;27.48;;;17.88;;
31224;SDS011;17847;31.524;74.366;2024-02-21T06:52:19;23.92;;;16.45;;
31224;SDS011;17847;31.524;74.366;2024-02-21T06:54:48;22.60;;;15.68;;
31224;SDS011;17847;31.524;74.366;2024-02-21T06:57:18;23.48;;;16.05;;
31224;SDS011;17847;31.524;74.366;2024-02-21T06:59:47;21.70;;;15.10;;
31224;SDS011;17847;31.524;74.366;2024-02-21T07:02:17;22.98;;;15.85;;
31224;SDS011;17847;31.524;74.366;2024-02-21T07:04:46;22.52;;;14.73;;
31224;SDS011;17847;31.524;74.366;2024-02-21T07:07:16;23.80;;;14.90;;
31224;SDS011;17847;31.524;74.366;2024-02-21T07:09:46;20.52;;;13.30;;
31224;SDS011;17847;31.524;74.366;2024-02-21T07:12:17;26.30;;;15.02;;
31224;SDS011;17847;31.524;74.366;2024-02-21T07:14:47;22.27;;;15.10;;
31224;SDS011;17847;31.524;74.366;2024-02-21T07:17:16;21.27;;;15.07;;
31224;SDS011;17847;31.524;74.366;2024-02-21T07:19:46;20.95;;;14.18;;
31224;SDS011;17847;31.524;74.366;2024-02-21T07:22:15;20.02;;;15.07;;
31224;SDS011;17847;31.524;74.366;2024-02-21T07:24:45;18.70;;;13.02;;
31224;SDS011;17847;31.524;74.366;2024-02-21T07:27:15;19.27;;;13.82;;
31224;SDS011;17847;31.524;74.366;2024-02-21T07:29:45;15.52;;;11.73;;
31224;SDS011;17847;31.524;74.366;2024-02-21T07:32:17;23.88;;;13.30;;
31224;SDS011;17847;31.524;74.366;2024-02-21T07:34:46;21.02;;;13.38;;
31224;SDS011;17847;31.524;74.366;2024-02-21T07:37:16;18.60;;;12.73;;
31224;SDS011;17847;31.524;74.366;2024-02-21T07:39:45;21.15;;;13.95;;
31224;SDS011;17847;31.524;74.366;2024-02-21T07:42:15;15.80;;;11.60;;
31224;SDS011;17847;31.524;74.366;2024-02-21T07:44:45;17.63;;;11.93;;
31224;SDS011;17847;31.524;74.366;2024-02-21T07:47:14;23.13;;;13.55;;
31224;SDS011;17847;31.524;74.366;2024-02-21T07:49:44;16.73;;;12.40;;
31224;SDS011;17847;31.524;74.366;2024-02-21T07:52:17;16.73;;;10.93;;
31224;SDS011;17847;31.524;74.366;2024-02-21T07:54:47;18.10;;;11.73;;
31224;SDS011;17847;31.524;74.366;2024-02-21T07:57:16;19.50;;;11.00;;
31224;SDS011;17847;31.524;74.366;2024-02-21T07:59:47;18.45;;;11.63;;
31224;SDS011;17847;31.524;74.366;2024-02-21T08:02:17;19.33;;;12.85;;
31224;SDS011;17847;31.524;74.366;2024-02-21T08:04:46;20.50;;;12.20;;
31224;SDS011;17847;31.524;74.366;2024-02-21T08:07:16;21.30;;;11.60;;
31224;SDS011;17847;31.524;74.366;2024-02-21T08:09:45;18.65;;;12.48;;
31224;SDS011;17847;31.524;74.366;2024-02-21T08:12:15;19.88;;;13.93;;
31224;SDS011;17847;31.524;74.366;2024-02-21T08:14:44;20.60;;;13.60;;
31224;SDS011;17847;31.524;74.366;2024-02-21T08:17:13;20.30;;;13.48;;
31224;SDS011;17847;31.524;74.366;2024-02-21T08:19:43;23.10;;;15.27;;
31224;SDS011;17847;31.524;74.366;2024-02-21T08:22:12;25.00;;;15.23;;
31224;SDS011;17847;31.524;74.366;2024-02-21T08:24:42;28.15;;;16.33;;
31224;SDS011;17847;31.524;74.366;2024-02-21T08:27:11;26.55;;;15.80;;
31224;SDS011;17847;31.524;74.366;2024-02-21T08:29:40;24.70;;;16.73;;
31224;SDS011;17847;31.524;74.366;2024-02-21T08:32:10;20.08;;;15.20;;
31224;SDS011;17847;31.524;74.366;2024-02-21T08:34:39;23.65;;;15.80;;
31224;SDS011;17847;31.524;74.366;2024-02-21T08:37:09;22.90;;;16.20;;
31224;SDS011;17847;31.524;74.366;2024-02-21T08:39:39;33.53;;;15.93;;
31224;SDS011;17847;31.524;74.366;2024-02-21T08:42:08;25.25;;;16.13;;
31224;SDS011;17847;31.524;74.366;2024-02-21T08:44:39;28.13;;;16.25;;
31224;SDS011;17847;31.524;74.366;2024-02-21T08:47:09;27.02;;;15.40;;
31224;SDS011;17847;31.524;74.366;2024-02-21T08:49:39;24.27;;;15.65;;
31224;SDS011;17847;31.524;74.366;2024-02-21T08:52:08;22.45;;;15.75;;
31224;SDS011;17847;31.524;74.366;2024-02-21T08:54:38;27.00;;;15.45;;
31224;SDS011;17847;31.524;74.366;2024-02-21T08:57:07;21.88;;;15.02;;
31224;SDS011;17847;31.524;74.366;2024-02-21T08:59:36;23.70;;;15.25;;
31224;SDS011;17847;31.524;74.366;2024-02-21T09:02:06;28.52;;;16.85;;
31224;SDS011;17847;31.524;74.366;2024-02-21T09:04:37;28.52;;;19.00;;
31224;SDS011;17847;31.524;74.366;2024-02-21T09:07:07;30.92;;;18.58;;
31224;SDS011;17847;31.524;74.366;2024-02-21T09:09:36;29.92;;;18.10;;
31224;SDS011;17847;31.524;74.366;2024-02-21T09:12:09;33.33;;;19.73;;
31224;SDS011;17847;31.524;74.366;2024-02-21T09:14:38;32.47;;;19.83;;
31224;SDS011;17847;31.524;74.366;2024-02-21T09:17:08;25.88;;;18.60;;
31224;SDS011;17847;31.524;74.366;2024-02-21T09:19:37;30.65;;;18.55;;
31224;SDS011;17847;31.524;74.366;2024-02-21T09:22:07;31.08;;;20.00;;
31224;SDS011;17847;31.524;74.366;2024-02-21T09:24:36;34.35;;;19.40;;
31224;SDS011;17847;31.524;74.366;2024-02-21T09:27:06;22.30;;;16.38;;
31224;SDS011;17847;31.524;74.366;2024-02-21T09:29:36;24.88;;;16.48;;
31224;SDS011;17847;31.524;74.366;2024-02-21T09:32:07;22.55;;;16.13;;
31224;SDS011;17847;31.524;74.366;2024-02-21T09:34:37;24.13;;;16.50;;
31224;SDS011;17847;31.524;74.366;2024-02-21T09:37:08;23.35;;;15.20;;
31224;SDS011;17847;31.524;74.366;2024-02-21T09:39:38;23.92;;;15.45;;
31224;SDS011;17847;31.524;74.366;2024-02-21T09:42:08;24.45;;;13.10;;
31224;SDS011;17847;31.524;74.366;2024-02-21T09:44:40;24.63;;;14.30;;
31224;SDS011;17847;31.524;74.366;2024-02-21T09:50:12;14.82;;;10.07;;
31224;SDS011;17847;31.524;74.366;2024-02-21T09:52:44;14.60;;;9.13;;
31224;SDS011;17847;31.524;74.366;2024-02-21T09:55:13;17.58;;;9.65;;
31224;SDS011;17847;31.524;74.366;2024-02-21T09:57:45;16.13;;;9.45;;
31224;SDS011;17847;31.524;74.366;2024-02-21T10:00:15;13.75;;;8.20;;
31224;SDS011;17847;31.524;74.366;2024-02-21T10:02:50;19.98;;;10.13;;
31224;SDS011;17847;31.524;74.366;2024-02-21T10:05:19;20.00;;;11.73;;
31224;SDS011;17847;31.524;74.366;2024-02-21T10:07:51;20.23;;;10.88;;
31224;SDS011;17847;31.524;74.366;2024-02-21T10:10:20;19.25;;;9.77;;
31224;SDS011;17847;31.524;74.366;2024-02-21T10:12:50;14.50;;;9.07;;
31224;SDS011;17847;31.524;74.366;2024-02-21T10:15:23;19.10;;;9.35;;
31224;SDS011;17847;31.524;74.366;2024-02-21T10:18:00;16.13;;;8.18;;
31224;SDS011;17847;31.524;74.366;2024-02-21T10:20:34;15.05;;;7.80;;
31224;SDS011;17847;31.524;74.366;2024-02-21T10:23:04;13.20;;;7.50;;
31224;SDS011;17847;31.524;74.366;2024-02-21T10:25:37;10.85;;;6.78;;
31224;SDS011;17847;31.524;74.366;2024-02-21T10:28:12;9.37;;;6.00;;
31224;SDS011;17847;31.524;74.366;2024-02-21T10:30:52;11.52;;;6.72;;
31224;SDS011;17847;31.524;74.366;2024-02-21T10:33:21;17.70;;;6.90;;
31224;SDS011;17847;31.524;74.366;2024-02-21T10:35:54;12.88;;;7.68;;
31224;SDS011;17847;31.524;74.366;2024-02-21T10:38:23;15.40;;;7.95;;
31224;SDS011;17847;31.524;74.366;2024-02-21T10:40:52;10.10;;;6.50;;
31224;SDS011;17847;31.524;74.366;2024-02-21T10:43:27;16.35;;;6.25;;
31224;SDS011;17847;31.524;74.366;2024-02-21T10:45:58;10.52;;;5.75;;
31224;SDS011;17847;31.524;74.366;2024-02-21T10:48:34;13.52;;;5.97;;
31224;SDS011;17847;31.524;74.366;2024-02-21T10:51:14;14.00;;;6.15;;
31224;SDS011;17847;31.524;74.366;2024-02-21T10:56:42;8.68;;;5.32;;
31224;SDS011;17847;31.524;74.366;2024-02-21T10:59:12;10.13;;;6.05;;
31224;SDS011;17847;31.524;74.366;2024-02-21T11:01:42;9.82;;;5.10;;
31224;SDS011;17847;31.524;74.366;2024-02-21T11:04:12;11.90;;;5.95;;
31224;SDS011;17847;31.524;74.366;2024-02-21T11:06:43;10.27;;;5.30;;
31224;SDS011;17847;31.524;74.366;2024-02-21T11:09:12;17.52;;;6.07;;
31224;SDS011;17847;31.524;74.366;2024-02-21T11:11:43;10.60;;;4.53;;
31224;SDS011;17847;31.524;74.366;2024-02-21T11:14:20;10.30;;;4.45;;
31224;SDS011;17847;31.524;74.366;2024-02-21T11:16:50;7.38;;;4.72;;
31224;SDS011;17847;31.524;74.366;2024-02-21T11:19:23;11.43;;;5.30;;
31224;SDS011;17847;31.524;74.366;2024-02-21T11:21:53;12.13;;;4.95;;
31224;SDS011;17847;31.524;74.366;2024-02-21T11:24:26;7.35;;;5.20;;
31224;SDS011;17847;31.524;74.366;2024-02-21T11:27:11;10.98;;;5.32;;
31224;SDS011;17847;31.524;74.366;2024-02-21T11:29:45;11.60;;;5.28;;
31224;SDS011;17847;31.524;74.366;2024-02-21T11:32:21;11.98;;;5.80;;
31224;SDS011;17847;31.524;74.366;2024-02-21T11:35:01;14.23;;;6.97;;
31224;SDS011;17847;31.524;74.366;2024-02-21T11:37:36;13.07;;;5.30;;
31224;SDS011;17847;31.524;74.366;2024-02-21T11:40:06;12.05;;;5.25;;
31224;SDS011;17847;31.524;74.366;2024-02-21T11:42:39;7.10;;;3.97;;
31224;SDS011;17847;31.524;74.366;2024-02-21T11:45:09;11.82;;;4.38;;
31224;SDS011;17847;31.524;74.366;2024-02-21T11:47:39;14.48;;;4.18;;
31224;SDS011;17847;31.524;74.366;2024-02-21T11:50:11;10.35;;;4.20;;
31224;SDS011;17847;31.524;74.366;2024-02-21T11:52:43;15.63;;;5.60;;
31224;SDS011;17847;31.524;74.366;2024-02-21T11:55:14;8.55;;;4.25;;
31224;SDS011;17847;31.524;74.366;2024-02-21T11:57:43;14.18;;;6.88;;
31224;SDS011;17847;31.524;74.366;2024-02-21T12:00:17;11.88;;;4.35;;
31224;SDS011;17847;31.524;74.366;2024-02-21T12:02:52;11.32;;;4.00;;
31224;SDS011;17847;31.524;74.366;2024-02-21T12:05:25;15.25;;;4.47;;
31224;SDS011;17847;31.524;74.366;2024-02-21T12:07:57;8.63;;;3.95;;
31224;SDS011;17847;31.524;74.366;2024-02-21T12:10:27;12.45;;;3.90;;
31224;SDS011;17847;31.524;74.366;2024-02-21T12:13:09;14.18;;;5.70;;
31224;SDS011;17847;31.524;74.366;2024-02-21T12:15:40;14.43;;;4.10;;
31224;SDS011;17847;31.524;74.366;2024-02-21T12:18:10;7.78;;;4.78;;
31224;SDS011;17847;31.524;74.366;2024-02-21T12:20:39;14.52;;;5.43;;
31224;SDS011;17847;31.524;74.366;2024-02-21T12:23:10;15.13;;;5.68;;
31224;SDS011;17847;31.524;74.366;2024-02-21T12:25:40;11.65;;;5.32;;
31224;SDS011;17847;31.524;74.366;2024-02-21T12:28:09;10.15;;;4.30;;
31224;SDS011;17847;31.524;74.366;2024-02-21T12:30:39;10.80;;;5.07;;
31224;SDS011;17847;31.524;74.366;2024-02-21T12:33:08;12.05;;;5.20;;
31224;SDS011;17847;31.524;74.366;2024-02-21T12:35:38;14.93;;;5.57;;
31224;SDS011;17847;31.524;74.366;2024-02-21T12:38:08;16.17;;;5.13;;
31224;SDS011;17847;31.524;74.366;2024-02-21T12:40:39;10.45;;;5.53;;
31224;SDS011;17847;31.524;74.366;2024-02-21T12:43:09;15.27;;;5.97;;
31224;SDS011;17847;31.524;74.366;2024-02-21T12:45:39;11.95;;;5.63;;
31224;SDS011;17847;31.524;74.366;2024-02-21T12:48:08;13.60;;;6.32;;
31224;SDS011;17847;31.524;74.366;2024-02-21T12:50:39;18.98;;;6.80;;
31224;SDS011;17847;31.524;74.366;2024-02-21T12:53:18;10.85;;;6.40;;
31224;SDS011;17847;31.524;74.366;2024-02-21T12:55:59;16.52;;;7.85;;
31224;SDS011;17847;31.524;74.366;2024-02-21T12:58:29;13.55;;;7.53;;
31224;SDS011;17847;31.524;74.366;2024-02-21T13:01:00;14.70;;;7.18;;
31224;SDS011;17847;31.524;74.366;2024-02-21T13:03:30;15.40;;;7.47;;
31224;SDS011;17847;31.524;74.366;2024-02-21T13:06:00;11.52;;;7.05;;
31224;SDS011;17847;31.524;74.366;2024-02-21T13:08:30;22.25;;;9.20;;
31224;SDS011;17847;31.524;74.366;2024-02-21T13:10:59;28.52;;;13.90;;
31224;SDS011;17847;31.524;74.366;2024-02-21T13:13:30;30.55;;;17.30;;
31224;SDS011;17847;31.524;74.366;2024-02-21T13:16:00;37.00;;;18.55;;
31224;SDS011;17847;31.524;74.366;2024-02-21T13:18:30;39.20;;;20.33;;
31224;SDS011;17847;31.524;74.366;2024-02-21T13:21:01;55.85;;;26.13;;
31224;SDS011;17847;31.524;74.366;2024-02-21T13:23:30;95.60;;;43.35;;
31224;SDS011;17847;31.524;74.366;2024-02-21T13:26:00;88.32;;;45.40;;
31224;SDS011;17847;31.524;74.366;2024-02-21T13:28:30;115.65;;;52.95;;
31224;SDS011;17847;31.524;74.366;2024-02-21T13:30:59;143.52;;;62.58;;
31224;SDS011;17847;31.524;74.366;2024-02-21T13:33:29;137.50;;;59.45;;
31224;SDS011;17847;31.524;74.366;2024-02-21T13:35:58;133.13;;;63.15;;
31224;SDS011;17847;31.524;74.366;2024-02-21T13:38:30;124.97;;;54.00;;
31224;SDS011;17847;31.524;74.366;2024-02-21T13:41:00;114.57;;;52.38;;
31224;SDS011;17847;31.524;74.366;2024-02-21T13:43:29;106.75;;;47.55;;
31224;SDS011;17847;31.524;74.366;2024-02-21T13:46:00;110.20;;;48.20;;
31224;SDS011;17847;31.524;74.366;2024-02-21T13:48:37;90.15;;;42.90;;
31224;SDS011;17847;31.524;74.366;2024-02-21T13:51:07;93.15;;;39.35;;
31224;SDS011;17847;31.524;74.366;2024-02-21T13:53:37;95.53;;;40.45;;
31224;SDS011;17847;31.524;74.366;2024-02-21T13:56:07;97.70;;;38.38;;
31224;SDS011;17847;31.524;74.366;2024-02-21T13:58:38;96.95;;;35.45;;
31224;SDS011;17847;31.524;74.366;2024-02-21T14:01:07;80.47;;;33.85;;
31224;SDS011;17847;31.524;74.366;2024-02-21T14:03:38;85.57;;;32.97;;
31224;SDS011;17847;31.524;74.366;2024-02-21T14:06:07;70.97;;;30.08;;
31224;SDS011;17847;31.524;74.366;2024-02-21T14:08:37;67.75;;;28.17;;
31224;SDS011;17847;31.524;74.366;2024-02-21T14:11:08;70.68;;;27.15;;
31224;SDS011;17847;31.524;74.366;2024-02-21T14:13:37;61.00;;;25.25;;
31224;SDS011;17847;31.524;74.366;2024-02-21T14:16:10;55.13;;;21.83;;
31224;SDS011;17847;31.524;74.366;2024-02-21T14:18:41;41.22;;;18.35;;
31224;SDS011;17847;31.524;74.366;2024-02-21T14:21:11;40.80;;;16.20;;
31224;SDS011;17847;31.524;74.366;2024-02-21T14:23:41;40.42;;;15.73;;
31224;SDS011;17847;31.524;74.366;2024-02-21T14:26:11;35.50;;;15.07;;
31224;SDS011;17847;31.524;74.366;2024-02-21T14:28:42;37.22;;;15.43;;
31224;SDS011;17847;31.524;74.366;2024-02-21T14:31:12;38.22;;;13.85;;
31224;SDS011;17847;31.524;74.366;2024-02-21T14:33:43;43.75;;;14.85;;
31224;SDS011;17847;31.524;74.366;2024-02-21T14:36:15;33.20;;;14.38;;
31224;SDS011;17847;31.524;74.366;2024-02-21T14:38:45;41.88;;;14.23;;